Time;durP1;ratioP1;P1;durP2;ratioP2;P2;SDS_P1;SDS_P2;PMS_P1;PMS_P2;Temp;Humidity;BMP_temperature;BMP_pressure;BME280_temperature;BME280_humidity;BME280_pressure;Samples;Min_cycle;Max_cycle;Signal;HPM_P1;HPM_P2
2022/10/26 00:01:29;;;;;;;16.33;9.90;;;9.90;99.90;;;9.71;100.00;101295.38;4957372;29;20509;-70
2022/10/26 00:03:58;;;;;;;11.43;9.17;;;9.90;99.90;;;9.68;100.00;101302.00;4949422;29;20404;-70
2022/10/26 00:06:28;;;;;;;10.80;8.47;;;9.80;99.90;;;9.66;100.00;101298.63;4949154;29;20432;-70
2022/10/26 00:08:57;;;;;;;12.53;9.63;;;9.80;99.90;;;9.78;100.00;101296.31;4945649;29;20450;-71
2022/10/26 00:11:26;;;;;;;13.17;9.00;;;9.90;99.90;;;9.84;100.00;101299.09;4946120;29;20449;-69
2022/10/26 00:13:55;;;;;;;11.00;8.10;;;10.00;99.90;;;9.85;100.00;101291.81;4943895;29;20464;-68
2022/10/26 00:16:27;;;;;;;15.73;11.07;;;10.00;99.90;;;9.78;100.00;101307.94;4958923;28;20445;-71
2022/10/26 00:18:57;;;;;;;13.20;9.17;;;9.90;99.90;;;9.81;100.00;101301.34;4952847;28;20480;-69
2022/10/26 00:21:26;;;;;;;11.00;8.33;;;10.00;99.90;;;9.72;100.00;101302.47;4954277;29;20437;-71
2022/10/26 00:23:56;;;;;;;11.60;8.77;;;9.90;99.90;;;9.77;100.00;101295.47;4952658;28;20433;-70
2022/10/26 00:26:25;;;;;;;12.47;8.33;;;9.90;99.90;;;9.81;100.00;101312.16;4939789;29;20789;-71
2022/10/26 00:28:55;;;;;;;14.47;9.30;;;9.90;99.90;;;9.76;100.00;101307.31;4956023;28;20439;-71
2022/10/26 00:31:25;;;;;;;16.23;7.17;;;9.90;99.90;;;9.76;100.00;101303.75;4947572;29;20423;-70
2022/10/26 00:33:54;;;;;;;12.50;8.10;;;9.90;99.90;;;9.74;100.00;101311.19;4944471;29;20495;-70
2022/10/26 00:36:26;;;;;;;16.30;9.13;;;9.90;99.90;;;9.72;100.00;101324.91;4941458;29;20517;-68
2022/10/26 00:38:56;;;;;;;16.70;10.10;;;9.90;99.90;;;9.67;100.00;101321.94;4952610;28;20462;-70
2022/10/26 00:41:29;;;;;;;14.77;9.00;;;9.80;99.90;;;9.67;100.00;101321.94;4950546;28;20418;-69
2022/10/26 00:43:59;;;;;;;18.13;10.30;;;9.80;99.90;;;9.72;100.00;101324.91;4946825;29;20433;-70
2022/10/26 00:46:34;;;;;;;16.67;9.03;;;9.90;99.90;;;9.61;100.00;101325.38;4953496;29;20479;-69
2022/10/26 00:49:10;;;;;;;13.00;10.13;;;9.80;99.90;;;9.51;100.00;101322.09;4934781;29;20473;-69
2022/10/26 00:51:46;;;;;;;12.23;8.57;;;9.70;99.90;;;9.45;100.00;101328.22;4918091;29;20408;-69
2022/10/26 00:54:19;;;;;;;17.53;8.93;;;9.70;99.90;;;9.49;100.00;101318.72;4920795;29;20967;-69
2022/10/26 00:56:51;;;;;;;14.00;7.47;;;9.70;99.90;;;9.47;100.00;101327.03;4936173;29;20431;-69
2022/10/26 00:59:23;;;;;;;17.30;9.07;;;9.60;99.90;;;9.43;100.00;101316.78;4935984;29;20407;-69
2022/10/26 01:01:53;;;;;;;14.20;9.57;;;9.60;99.90;;;9.41;100.00;101316.13;4944856;29;20500;-69
2022/10/26 01:04:22;;;;;;;14.47;9.30;;;9.60;99.90;;;9.32;100.00;101317.22;4938756;29;21050;-68
2022/10/26 01:06:53;;;;;;;12.57;8.87;;;9.50;99.90;;;9.32;100.00;101311.81;4930792;29;20439;-69
2022/10/26 01:09:23;;;;;;;13.13;9.00;;;9.50;99.90;;;9.35;100.00;101308.75;4936876;29;20511;-69
2022/10/26 01:11:51;;;;;;;13.37;9.50;;;9.50;99.90;;;9.31;100.00;101310.16;4934541;29;20432;-69
2022/10/26 01:14:22;;;;;;;11.40;8.10;;;9.50;99.90;;;9.35;100.00;101311.44;4948026;29;20803;-70
2022/10/26 01:17:08;;;;;;;15.40;9.23;;;9.50;99.90;;;9.34;100.00;101312.50;4938996;29;20434;-68
2022/10/26 01:20:35;;;;;;;16.73;8.47;;;9.50;99.90;;;9.47;100.00;101310.84;4933758;29;20404;-69
2022/10/26 01:23:16;;;;;;;13.03;8.80;;;9.50;99.90;;;9.52;100.00;101307.56;4917941;29;20428;-69
2022/10/26 01:30:36;;;;;;;11.23;8.87;;;9.50;99.90;;;9.34;100.00;101299.00;4910281;29;20476;-70
2022/10/26 01:33:29;;;;;;;15.47;9.13;;;9.50;99.90;;;9.18;100.00;101297.28;4914900;29;20629;-69
2022/10/26 01:36:13;;;;;;;16.67;10.43;;;9.40;99.90;;;9.31;100.00;101293.94;4928375;29;20439;-68
2022/10/26 01:38:55;;;;;;;11.17;8.50;;;9.40;99.90;;;9.18;100.00;101293.75;4915913;29;20193;-69
2022/10/26 01:41:31;;;;;;;14.40;10.03;;;9.30;99.90;;;9.07;100.00;101292.31;4917874;29;20415;-69
2022/10/26 01:44:07;;;;;;;18.70;10.10;;;9.30;99.90;;;9.16;100.00;101286.66;4933815;29;20517;-68
2022/10/26 01:46:44;;;;;;;14.23;8.67;;;9.30;99.90;;;9.25;100.00;101294.66;4929244;29;20908;-68
2022/10/26 01:49:18;;;;;;;21.20;9.80;;;9.30;99.90;;;9.23;100.00;101284.06;4920573;29;20468;-67
2022/10/26 01:51:49;;;;;;;15.97;10.13;;;9.40;99.90;;;9.08;100.00;101286.75;4927314;29;20775;-69
2022/10/26 01:54:18;;;;;;;15.93;10.57;;;9.30;99.90;;;9.10;100.00;101287.38;4914535;29;20522;-68
2022/10/26 01:56:52;;;;;;;14.50;10.70;;;9.20;99.90;;;9.10;100.00;101283.88;4914730;29;20456;-67
2022/10/26 01:59:36;;;;;;;12.20;8.93;;;9.20;99.90;;;8.99;100.00;101287.84;4921971;29;20692;-67
2022/10/26 02:02:40;;;;;;;20.03;9.90;;;9.20;99.90;;;8.95;100.00;101281.13;4932271;29;20427;-69
2022/10/26 02:05:31;;;;;;;10.80;8.03;;;9.10;99.90;;;9.02;100.00;101281.22;4933241;29;20873;-69
2022/10/26 02:08:26;;;;;;;11.70;8.40;;;9.10;99.90;;;9.24;100.00;101282.22;4927316;29;20496;-68
2022/10/26 02:11:17;;;;;;;14.73;9.37;;;9.20;99.90;;;9.05;100.00;101278.19;4920500;29;20480;-68
2022/10/26 02:13:56;;;;;;;14.70;8.53;;;9.20;99.90;;;9.03;100.00;101277.50;4927035;29;20435;-68
2022/10/26 02:16:36;;;;;;;12.40;8.93;;;9.10;99.90;;;9.18;100.00;101280.25;4933752;29;20475;-68
2022/10/26 02:19:20;;;;;;;18.63;9.25;;;9.20;99.90;;;9.36;100.00;101280.72;4919870;29;20369;-68
2022/10/26 02:21:57;;;;;;;13.43;9.68;;;9.30;99.90;;;9.21;100.00;101272.59;4933199;29;20197;-67
2022/10/26 02:24:29;;;;;;;9.20;8.17;;;9.30;99.90;;;9.34;100.00;101272.81;4920703;29;20211;-67
2022/10/26 02:27:03;;;;;;;15.33;9.17;;;9.40;99.90;;;9.22;100.00;101268.03;4932021;29;20979;-67
2022/10/26 02:29:34;;;;;;;13.90;8.65;;;9.30;99.90;;;9.02;100.00;101259.63;4916684;29;20463;-69
2022/10/26 02:32:06;;;;;;;15.43;9.03;;;9.20;99.90;;;8.85;100.00;101258.94;4927338;29;20280;-68
2022/10/26 02:34:41;;;;;;;18.47;10.00;;;9.00;99.90;;;8.89;100.00;101262.97;4922981;29;20431;-68
2022/10/26 02:37:12;;;;;;;16.73;11.50;;;9.00;99.90;;;8.96;100.00;101260.34;4941077;29;20947;-67
2022/10/26 02:39:43;;;;;;;15.03;7.93;;;9.10;99.90;;;8.98;100.00;101266.41;4913581;29;20940;-67
2022/10/26 02:42:15;;;;;;;15.00;11.05;;;9.00;99.90;;;9.13;100.00;101265.44;4920338;29;20907;-69
2022/10/26 02:44:52;;;;;;;16.60;11.30;;;9.10;99.90;;;9.28;100.00;101267.31;4913344;29;20198;-68
2022/10/26 02:47:21;;;;;;;14.40;9.27;;;9.20;99.90;;;9.12;100.00;101274.56;4921410;29;20413;-68
2022/10/26 02:49:52;;;;;;;15.88;9.00;;;9.20;99.90;;;8.97;100.00;101281.78;4932493;29;20522;-67
2022/10/26 02:52:32;;;;;;;12.93;8.27;;;9.10;99.90;;;8.78;100.00;101284.97;4930852;29;20181;-69
2022/10/26 02:55:09;;;;;;;12.40;9.13;;;8.90;99.90;;;8.86;100.00;101284.09;4914339;29;20181;-68
2022/10/26 02:57:41;;;;;;;13.05;10.43;;;9.00;99.90;;;8.83;100.00;101279.88;4931434;29;20437;-68
2022/10/26 03:00:15;;;;;;;13.27;9.27;;;8.90;99.90;;;8.77;100.00;101283.28;4932552;29;20279;-68
2022/10/26 03:02:51;;;;;;;15.00;8.30;;;8.90;99.90;;;8.68;100.00;101292.47;4931825;29;20691;-67
2022/10/26 03:05:26;;;;;;;12.97;9.23;;;8.80;99.90;;;8.62;100.00;101290.47;4924859;29;20284;-69
2022/10/26 03:07:57;;;;;;;11.80;9.00;;;8.80;99.90;;;8.71;100.00;101281.34;4926245;29;20427;-69
2022/10/26 03:10:27;;;;;;;12.43;8.77;;;8.80;99.90;;;8.84;100.00;101281.56;4914581;29;20534;-67
2022/10/26 03:12:56;;;;;;;13.35;8.32;;;8.90;99.90;;;8.77;100.00;101282.44;4925285;29;20622;-69
2022/10/26 03:15:24;;;;;;;16.50;9.50;;;8.90;99.90;;;8.77;100.00;101280.59;4922768;29;20486;-67
2022/10/26 03:17:53;;;;;;;15.30;9.67;;;8.90;99.90;;;8.84;100.00;101281.56;4933492;29;20933;-69
2022/10/26 03:20:24;;;;;;;13.33;8.37;;;8.90;99.90;;;8.73;100.00;101280.13;4933149;29;20894;-69
2022/10/26 03:22:53;;;;;;;16.00;9.67;;;8.90;99.90;;;8.66;100.00;101283.75;4928010;29;20940;-68
2022/10/26 03:25:22;;;;;;;14.77;8.47;;;8.80;99.90;;;8.66;100.00;101279.19;4926414;29;20983;-68
2022/10/26 03:27:58;;;;;;;13.13;8.80;;;8.80;99.90;;;8.67;100.00;101280.84;4921015;29;20468;-68
2022/10/26 03:30:28;;;;;;;15.00;9.27;;;8.80;99.90;;;8.71;100.00;101286.72;4946401;29;20291;-69
2022/10/26 03:32:57;;;;;;;12.97;8.70;;;8.90;99.90;;;8.67;100.00;101291.63;4932681;29;20443;-68
2022/10/26 03:35:27;;;;;;;13.23;8.87;;;8.80;99.90;;;8.70;100.00;101291.28;4936654;29;20461;-68
2022/10/26 03:37:56;;;;;;;15.10;8.13;;;8.80;99.90;;;8.78;100.00;101287.66;4931936;29;20850;-67
2022/10/26 03:40:25;;;;;;;13.97;8.80;;;8.90;99.90;;;8.70;100.00;101291.28;4927828;29;20933;-68
2022/10/26 03:42:54;;;;;;;17.87;8.80;;;8.80;99.90;;;8.69;100.00;101280.66;4925603;29;20528;-68
2022/10/26 03:45:23;;;;;;;12.20;8.40;;;8.80;99.90;;;8.73;100.00;101284.69;4932319;29;20758;-67
2022/10/26 03:47:52;;;;;;;16.00;8.30;;;8.80;99.90;;;8.86;100.00;101295.69;4919446;29;20368;-68
2022/10/26 03:50:23;;;;;;;13.07;8.80;;;8.90;99.90;;;9.12;100.00;101290.75;4915320;29;20452;-68
2022/10/26 03:52:53;;;;;;;15.70;8.77;;;9.10;99.90;;;9.03;100.00;101289.16;4916359;29;20449;-68
2022/10/26 03:55:22;;;;;;;11.75;8.18;;;9.10;99.90;;;9.04;100.00;101277.34;4916612;29;21022;-69
2022/10/26 03:57:51;;;;;;;10.57;8.20;;;9.10;99.90;;;8.96;100.00;101280.09;4932038;29;20276;-68
2022/10/26 04:00:20;;;;;;;11.40;8.35;;;9.10;99.90;;;8.92;100.00;101283.34;4936915;29;20425;-68
2022/10/26 04:02:56;;;;;;;15.80;8.10;;;9.00;99.90;;;9.15;100.00;101279.56;4936007;29;20227;-68
2022/10/26 04:05:28;;;;;;;12.30;8.80;;;9.10;99.90;;;9.05;100.00;101281.69;4918314;29;20471;-68
2022/10/26 04:08:01;;;;;;;12.60;7.70;;;9.10;99.90;;;9.10;100.00;101284.69;4916703;29;20410;-69
2022/10/26 04:10:38;;;;;;;13.70;7.05;;;9.20;99.90;;;9.07;100.00;101282.34;4916686;29;20591;-66
2022/10/26 04:13:07;;;;;;;12.43;7.93;;;9.20;99.90;;;8.93;100.00;101285.03;4917259;29;20178;-71
2022/10/26 04:15:35;;;;;;;13.13;8.33;;;9.10;99.90;;;8.87;100.00;101280.34;4929466;29;20447;-68
2022/10/26 04:18:04;;;;;;;18.47;8.30;;;9.00;99.90;;;8.85;100.00;101282.41;4917835;29;20420;-67
2022/10/26 04:20:35;;;;;;;15.73;8.13;;;9.00;99.90;;;8.94;100.00;101284.00;4917536;29;20404;-70
2022/10/26 04:23:07;;;;;;;13.60;8.87;;;9.00;99.90;;;8.85;100.00;101288.63;4917424;29;20515;-68
2022/10/26 04:25:36;;;;;;;25.37;9.17;;;9.00;99.90;;;8.88;100.00;101290.97;4932073;23;20571;-70
2022/10/26 04:28:07;;;;;;;12.00;6.63;;;9.00;99.90;;;8.87;100.00;101280.34;4930504;29;20955;-70
2022/10/26 04:30:37;;;;;;;13.80;8.17;;;9.00;99.90;;;8.89;100.00;101283.72;4927199;29;20443;-73
2022/10/26 04:33:06;;;;;;;16.92;10.13;;;9.00;99.90;;;8.87;100.00;101286.56;4922339;29;20902;-70
2022/10/26 04:35:35;;;;;;;11.75;8.15;;;9.00;99.90;;;8.84;100.00;101292.34;4922228;29;20282;-70
2022/10/26 04:38:07;;;;;;;17.25;7.90;;;9.00;99.90;;;8.88;100.00;101287.41;4922904;29;20231;-69
2022/10/26 04:40:36;;;;;;;19.70;7.13;;;9.00;99.90;;;8.88;100.00;101288.25;4915659;29;20321;-70
2022/10/26 04:43:05;;;;;;;10.20;7.83;;;9.00;99.90;;;8.96;100.00;101285.50;4915662;29;20440;-70
2022/10/26 04:45:34;;;;;;;16.60;8.20;;;9.00;99.90;;;8.96;100.00;101290.88;4917162;29;20436;-70
2022/10/26 04:48:06;;;;;;;16.70;7.47;;;9.00;99.90;;;8.81;100.00;101300.78;4919365;29;20229;-70
2022/10/26 04:50:36;;;;;;;10.93;7.50;;;9.00;99.90;;;8.84;100.00;101305.84;4916680;29;20884;-70
2022/10/26 04:53:08;;;;;;;12.32;7.55;;;8.90;99.90;;;8.89;100.00;101295.34;4918834;29;20433;-70
2022/10/26 04:55:37;;;;;;;13.10;8.65;;;9.00;99.90;;;8.95;100.00;101294.63;4917454;29;20561;-70
2022/10/26 04:58:06;;;;;;;7.90;6.60;;;9.00;99.90;;;9.13;100.00;101286.19;4920217;29;20237;-71
2022/10/26 05:00:36;;;;;;;13.95;6.85;;;9.10;99.90;;;9.02;100.00;101289.31;4917439;29;20400;-71
2022/10/26 05:03:07;;;;;;;9.63;8.07;;;9.10;99.90;;;8.96;100.00;101287.34;4917212;29;20204;-71
2022/10/26 05:05:37;;;;;;;8.95;7.32;;;9.10;99.90;;;9.02;100.00;101283.91;4920361;29;20220;-71
2022/10/26 05:08:07;;;;;;;10.40;7.40;;;9.10;99.90;;;8.93;100.00;101291.25;4927930;29;20280;-72
2022/10/26 05:10:36;;;;;;;14.13;8.17;;;9.10;99.90;;;8.92;100.00;101286.88;4929902;29;20534;-71
2022/10/26 05:13:05;;;;;;;12.38;7.40;;;9.00;99.90;;;9.02;100.00;101290.16;4920757;29;20483;-70
2022/10/26 05:15:34;;;;;;;10.15;8.27;;;9.10;99.90;;;9.01;100.00;101285.78;4916679;29;20217;-70
2022/10/26 05:18:07;;;;;;;15.27;7.97;;;9.10;99.90;;;9.11;100.00;101286.38;4915239;29;20201;-71
2022/10/26 05:20:37;;;;;;;14.93;9.07;;;9.10;99.90;;;8.91;100.00;101287.03;4915088;29;20437;-70
2022/10/26 05:23:12;;;;;;;20.50;9.60;;;9.10;99.90;;;9.01;100.00;101293.88;4915169;29;20771;-70
2022/10/26 05:25:41;;;;;;;13.93;8.97;;;9.00;99.90;;;9.09;100.00;101296.53;4921053;29;20572;-69
2022/10/26 05:28:13;;;;;;;13.40;8.37;;;9.10;99.90;;;9.02;100.00;101289.31;4927421;29;20465;-70
2022/10/26 05:30:42;;;;;;;12.30;7.83;;;9.10;99.90;;;9.04;100.00;101293.53;4897240;29;20521;-71
2022/10/26 05:33:13;;;;;;;13.83;9.60;;;9.10;99.90;;;9.00;100.00;101297.63;4908998;29;20817;-71
2022/10/26 05:35:43;;;;;;;15.10;8.53;;;9.10;99.90;;;9.06;100.00;101291.47;4909298;29;20428;-71
2022/10/26 05:38:16;;;;;;;10.27;8.30;;;9.10;99.90;;;8.89;100.00;101295.34;4914972;29;21004;-71
2022/10/26 05:40:48;;;;;;;17.67;9.07;;;9.00;99.90;;;8.92;100.00;101294.97;4915635;29;20434;-69
2022/10/26 05:43:20;;;;;;;11.27;7.50;;;9.00;99.90;;;8.87;100.00;101297.38;4919710;29;20897;-69
2022/10/26 05:45:50;;;;;;;12.37;7.70;;;9.00;99.90;;;8.95;100.00;101294.63;4922518;29;20557;-69
2022/10/26 05:48:20;;;;;;;10.33;8.30;;;9.00;99.90;;;8.81;100.00;101298.09;4917063;29;20903;-70
2022/10/26 05:50:49;;;;;;;14.30;8.83;;;9.00;99.90;;;8.80;100.00;101296.44;4903542;29;20463;-70
2022/10/26 05:53:19;;;;;;;11.67;8.33;;;8.90;99.90;;;8.80;100.00;101301.84;4918262;29;20478;-70
2022/10/26 05:55:49;;;;;;;14.67;9.30;;;8.90;99.90;;;8.73;100.00;101315.19;4920639;29;20930;-70
2022/10/26 05:58:19;;;;;;;15.83;9.73;;;8.90;99.90;;;8.67;100.00;101307.81;4914985;29;20869;-70
2022/10/26 06:01:17;;;;;;;14.60;8.63;;;8.80;99.90;;;8.78;100.00;101309.25;4914691;29;20865;-70
2022/10/26 06:04:12;;;;;;;11.13;7.37;;;8.80;99.90;;;8.85;100.00;101304.84;4916788;29;20437;-71
2022/10/26 06:06:46;;;;;;;13.40;8.97;;;8.90;99.90;;;8.99;100.00;101306.75;4910899;29;20526;-70
2022/10/26 06:09:17;;;;;;;12.57;9.47;;;9.00;99.90;;;9.00;100.00;101308.41;4917031;29;20412;-69
2022/10/26 06:11:47;;;;;;;19.67;8.82;;;9.10;99.90;;;9.07;100.00;101303.97;4928053;29;20465;-71
2022/10/26 06:14:22;;;;;;;18.50;9.47;;;9.10;99.90;;;8.99;100.00;101312.13;4915785;29;20280;-71
2022/10/26 06:17:08;;;;;;;14.73;10.10;;;9.10;99.90;;;9.00;100.00;101307.56;4928099;29;20463;-71
2022/10/26 06:19:59;;;;;;;20.20;8.30;;;9.10;99.90;;;8.93;100.00;101312.00;4905895;29;20861;-71
2022/10/26 06:22:47;;;;;;;13.47;8.43;;;9.00;99.90;;;9.16;100.00;101319.06;4923869;29;20448;-71
2022/10/26 06:25:33;;;;;;;14.70;10.43;;;9.10;99.90;;;9.26;100.00;101307.16;4915571;29;20510;-70
2022/10/26 06:28:21;;;;;;;18.60;8.95;;;9.20;99.90;;;9.20;100.00;101324.13;4906639;29;20527;-71
2022/10/26 06:30:50;;;;;;;15.97;9.43;;;9.20;99.90;;;9.23;100.00;101321.03;4919460;29;20197;-72
2022/10/26 06:33:20;;;;;;;16.63;8.80;;;9.20;99.90;;;9.16;100.00;101329.84;4919103;29;20469;-71
2022/10/26 06:36:17;;;;;;;13.45;8.73;;;9.20;99.90;;;9.21;100.00;101331.16;4918386;29;20457;-71
2022/10/26 06:38:49;;;;;;;17.73;9.95;;;9.20;99.90;;;9.25;100.00;101325.22;4921111;29;20201;-70
2022/10/26 06:41:21;;;;;;;12.83;8.27;;;9.30;99.90;;;9.32;100.00;101330.72;4933946;29;20193;-71
2022/10/26 06:43:51;;;;;;;11.60;8.87;;;9.30;99.90;;;9.36;100.00;101334.75;4918409;29;20468;-70
2022/10/26 06:46:35;;;;;;;9.63;8.00;;;9.40;99.90;;;9.29;100.00;101333.81;4921668;29;20515;-72
2022/10/26 06:49:18;;;;;;;20.40;9.30;;;9.30;99.90;;;9.35;100.00;101339.31;4920452;29;20408;-71
2022/10/26 06:51:57;;;;;;;19.33;8.93;;;9.40;99.90;;;9.35;100.00;101338.47;4921870;29;20469;-71
2022/10/26 06:54:43;;;;;;;16.60;9.17;;;9.40;99.90;;;9.44;100.00;101340.09;4917285;29;20433;-70
2022/10/26 06:57:16;;;;;;;15.50;10.00;;;9.40;99.90;;;9.56;100.00;101334.03;4917849;29;20970;-71
2022/10/26 06:59:51;;;;;;;16.23;8.40;;;9.60;99.90;;;9.64;100.00;101341.19;4919808;29;20433;-71
2022/10/26 07:02:20;;;;;;;19.00;9.07;;;9.60;99.90;;;9.73;100.00;101341.97;4916974;29;20432;-71
2022/10/26 07:04:49;;;;;;;9.93;8.93;;;9.70;99.90;;;9.83;100.00;101339.81;4904351;29;20798;-70
2022/10/26 07:07:21;;;;;;;15.77;9.37;;;9.80;99.90;;;9.98;100.00;101340.66;4920599;29;20440;-71
2022/10/26 07:09:50;;;;;;;11.17;9.93;;;9.90;99.90;;;10.02;100.00;101336.56;4921203;29;20408;-70
2022/10/26 07:12:20;;;;;;;17.63;10.40;;;10.00;99.90;;;10.14;100.00;101332.34;4920486;29;20933;-71
2022/10/26 07:14:49;;;;;;;14.83;10.40;;;10.10;99.90;;;10.15;100.00;101333.19;4907664;29;20408;-71
2022/10/26 07:17:18;;;;;;;11.07;9.50;;;10.10;99.90;;;10.16;100.00;101343.00;4917956;29;20874;-69
2022/10/26 07:19:47;;;;;;;11.33;9.00;;;10.20;99.90;;;10.36;100.00;101342.22;4923027;29;20419;-70
2022/10/26 07:22:16;;;;;;;14.30;10.50;;;10.30;99.90;;;10.34;100.00;101343.44;4924480;29;20427;-71
2022/10/26 07:24:48;;;;;;;12.87;9.90;;;10.30;99.90;;;10.40;100.00;101346.25;4924131;29;20953;-70
2022/10/26 07:27:19;;;;;;;12.10;9.90;;;10.40;99.90;;;10.51;100.00;101353.00;4912375;29;20403;-71
2022/10/26 07:29:48;;;;;;;20.67;11.63;;;10.50;99.90;;;10.56;100.00;101349.72;4927100;29;20469;-71
2022/10/26 07:32:17;;;;;;;15.50;10.07;;;10.60;99.90;;;10.67;100.00;101343.81;4900682;29;20480;-71
2022/10/26 07:34:46;;;;;;;14.30;10.60;;;10.60;99.90;;;10.75;100.00;101346.38;4918028;29;20411;-71
2022/10/26 07:37:15;;;;;;;17.73;11.53;;;10.70;99.90;;;10.92;100.00;101344.28;4922595;29;20493;-72
2022/10/26 07:39:44;;;;;;;15.70;9.40;;;10.80;99.90;;;10.97;100.00;101339.13;4917336;29;20433;-71
2022/10/26 07:42:13;;;;;;;17.07;10.17;;;10.90;99.90;;;11.05;100.00;101344.41;4920090;29;20480;-70
2022/10/26 07:44:43;;;;;;;13.33;9.50;;;10.90;99.90;;;11.24;100.00;101343.72;4912780;29;20505;-71
2022/10/26 07:47:12;;;;;;;15.43;9.43;;;11.00;99.90;;;11.39;100.00;101340.94;4918232;29;20438;-71
2022/10/26 07:49:41;;;;;;;15.73;9.67;;;11.20;99.90;;;11.42;100.00;101344.13;4919213;29;20408;-71
2022/10/26 07:52:10;;;;;;;13.97;8.97;;;11.30;99.90;;;11.49;100.00;101339.56;4923722;29;20404;-71
2022/10/26 07:54:39;;;;;;;12.07;10.27;;;11.40;99.90;;;11.57;100.00;101349.44;4923157;29;20444;-70
2022/10/26 07:57:08;;;;;;;20.83;10.33;;;11.50;99.90;;;11.74;100.00;101340.81;4928334;29;20457;-71
2022/10/26 07:59:37;;;;;;;15.20;9.13;;;11.60;99.90;;;11.85;100.00;101335.88;4923576;29;20434;-71
2022/10/26 08:02:09;;;;;;;11.77;9.83;;;11.70;99.90;;;11.90;100.00;101338.84;4928087;29;20812;-70
2022/10/26 08:04:38;;;;;;;15.33;10.40;;;11.70;99.90;;;12.09;98.43;101332.66;4916389;29;20539;-71
2022/10/26 08:07:07;;;;;;;13.80;9.70;;;11.90;99.90;;;12.33;95.19;101342.16;4922611;29;20461;-72
2022/10/26 08:09:36;;;;;;;15.30;7.80;;;12.00;99.90;;;12.29;96.56;101341.75;4922545;29;20507;-71
2022/10/26 08:12:06;;;;;;;12.23;10.10;;;12.10;99.90;;;12.31;96.74;101342.34;4917971;29;20416;-70
2022/10/26 08:14:35;;;;;;;22.00;9.40;;;12.20;99.90;;;12.40;97.13;101345.72;4919357;29;20457;-72
2022/10/26 08:17:04;;;;;;;16.70;10.07;;;12.30;99.90;;;12.47;95.77;101358.28;4915312;29;20457;-71
2022/10/26 08:19:34;;;;;;;11.97;10.13;;;12.40;99.90;;;12.69;91.80;101350.00;4916703;29;20532;-70
2022/10/26 08:22:03;;;;;;;15.97;9.67;;;12.40;99.90;;;12.76;91.26;101348.16;4919337;29;20489;-71
2022/10/26 08:24:32;;;;;;;11.63;7.70;;;12.50;99.90;;;12.78;90.58;101352.31;4918146;29;20445;-70
2022/10/26 08:27:01;;;;;;;11.07;8.40;;;12.60;99.90;;;12.76;90.50;101356.28;4912029;29;20461;-72
2022/10/26 08:29:30;;;;;;;13.60;8.37;;;12.70;99.90;;;12.71;91.65;101353.34;4931502;29;20454;-70
2022/10/26 08:31:59;;;;;;;13.93;9.63;;;12.70;99.90;;;12.82;91.12;101355.47;4919157;29;20536;-71
2022/10/26 08:34:28;;;;;;;15.10;9.60;;;12.70;99.90;;;12.94;90.85;101349.22;4926196;29;20468;-71
2022/10/26 08:36:58;;;;;;;15.63;9.33;;;12.70;99.90;;;13.07;89.96;101348.38;4914975;29;20479;-70
2022/10/26 08:39:29;;;;;;;14.63;9.40;;;;;;;13.25;87.94;101356.81;4921654;29;20528;-70
2022/10/26 08:42:06;;;;;;;13.73;9.50;;;;;;;13.36;88.05;101352.66;4923695;29;20441;-71
2022/10/26 08:44:42;;;;;;;16.70;9.23;;;;;;;13.44;86.18;101350.56;4921182;29;20856;-71
2022/10/26 08:47:18;;;;;;;12.43;8.00;;;;;;;13.59;86.19;101347.59;4915396;29;20832;-70
2022/10/26 08:49:52;;;;;;;8.97;7.83;;;;;;;13.75;86.37;101355.31;4916333;29;20437;-71
2022/10/26 08:52:31;;;;;;;14.97;9.73;;;;;;;13.84;85.12;101350.50;4909166;29;20416;-71
2022/10/26 08:55:02;;;;;;;15.43;9.27;;;;;;;13.97;84.31;101350.47;4910626;29;20524;-72
2022/10/26 08:57:38;;;;;;;12.87;10.50;;;;;;;14.25;81.36;101352.88;4918211;29;20438;-71
2022/10/26 09:00:11;;;;;;;8.83;7.93;;;;;;;14.14;81.79;101357.09;4905059;29;20514;-71
2022/10/26 09:02:41;;;;;;;17.10;9.67;;;;;;;14.23;81.74;101353.09;4907181;29;20545;-70
2022/10/26 09:05:16;;;;;;;15.57;9.90;;;;;;;14.17;81.26;101353.97;4916836;29;20431;-72
2022/10/26 09:07:56;;;;;;;12.53;9.17;;;;;;;14.32;80.36;101349.09;4923191;29;20472;-71
2022/10/26 09:10:37;;;;;;;10.00;7.97;;;;;;;14.30;80.88;101350.34;4924619;29;20423;-71
2022/10/26 09:13:19;;;;;;;10.73;8.87;;;;;;;14.40;80.08;101352.63;4928464;29;20439;-71
2022/10/26 09:16:00;;;;;;;11.93;8.87;;;;;;;14.49;79.48;101348.63;4916480;29;20432;-71
2022/10/26 09:18:40;;;;;;;16.50;8.97;;;;;;;14.75;78.77;101356.66;4916111;29;20441;-71
2022/10/26 09:21:22;;;;;;;8.40;7.40;;;;;;;14.73;78.90;101358.75;4922909;29;20415;-69
2022/10/26 09:24:00;;;;;;;13.03;8.97;;;;;;;14.88;77.48;101359.28;4913151;29;20436;-70
2022/10/26 09:26:39;;;;;;;11.60;8.00;;;;;;;14.98;76.33;101365.09;4915066;29;20569;-71
2022/10/26 09:29:12;;;;;;;11.50;6.77;;;;;;;14.98;76.59;101365.09;4928743;29;20441;-70
2022/10/26 09:31:45;;;;;;;17.00;8.60;;;;;;;15.07;77.12;101362.94;4921508;29;20927;-71
2022/10/26 09:34:24;;;;;;;9.70;7.50;;;;;;;15.08;76.53;101362.72;4916166;29;21076;-72
2022/10/26 09:36:55;;;;;;;11.40;7.60;;;;;;;15.19;76.71;101358.47;4914674;29;20439;-71
2022/10/26 09:39:36;;;;;;;11.53;9.10;;;;;;;15.31;76.30;101358.56;4910948;29;20971;-70
2022/10/26 09:42:16;;;;;;;11.03;7.70;;;;;;;15.43;75.79;101363.09;4918466;29;20971;-70
2022/10/26 09:44:53;;;;;;;8.53;7.23;;;;;;;15.75;73.50;101363.88;4920733;29;20474;-70
2022/10/26 09:47:31;;;;;;;11.40;9.20;;;;;;;15.71;73.93;101361.81;4914324;29;20834;-71
2022/10/26 09:50:14;;;;;;;9.53;8.50;;;;;;;15.72;73.59;101367.06;4919465;29;20428;-71
2022/10/26 09:52:44;;;;;;;13.90;7.60;;;;;;;15.75;73.21;101372.06;4910545;29;20447;-71
2022/10/26 09:55:15;;;;;;;12.83;7.40;;;;;;;16.02;72.49;101372.66;4921109;29;21002;-71
2022/10/26 09:57:48;;;;;;;8.00;6.37;;;;;;;15.99;72.59;101373.91;4915729;29;20547;-71
2022/10/26 10:00:20;;;;;;;10.50;6.43;;;;;;;15.90;71.66;101364.34;4917917;29;20451;-71
2022/10/26 10:02:52;;;;;;;13.60;8.30;;;;;;;15.91;71.99;101371.50;4915704;29;20603;-71
2022/10/26 10:05:25;;;;;;;9.73;8.17;;;;;;;15.93;72.07;101380.28;4915827;29;20947;-71
2022/10/26 10:08:20;;;;;;;12.10;8.70;;;;;;;16.09;71.46;101371.50;4906014;29;20453;-72
2022/10/26 10:10:59;;;;;;;8.70;6.00;;;;;;;16.12;70.95;101372.13;4923625;29;20502;-72
2022/10/26 10:13:30;;;;;;;10.50;8.10;;;;;;;16.18;71.17;101377.47;4928058;29;20652;-71
2022/10/26 10:16:06;;;;;;;12.33;7.90;;;;;;;16.35;70.57;101380.44;4931312;29;20979;-70
2022/10/26 10:18:37;;;;;;;12.40;6.70;;;;;;;16.46;70.71;101377.78;4932909;29;20484;-72
2022/10/26 10:21:07;;;;;;;12.23;7.70;;;;;;;16.50;69.85;101376.28;4927260;29;20842;-71
2022/10/26 10:23:46;;;;;;;10.40;7.00;;;;;;;16.64;69.04;101376.13;4909925;29;20491;-71
2022/10/26 10:26:17;;;;;;;16.00;7.40;;;;;;;16.79;68.66;101368.34;4940356;23;20467;-71
2022/10/26 10:28:58;;;;;;;8.73;6.63;;;;;;;16.82;68.49;101370.63;4933905;29;20473;-70
2022/10/26 10:31:32;;;;;;;6.83;5.97;;;;;;;16.81;67.85;101367.03;4928774;29;20529;-71
2022/10/26 10:34:14;;;;;;;14.10;5.47;;;;;;;16.85;67.39;101372.88;4928214;29;20469;-71
2022/10/26 10:36:44;;;;;;;8.40;5.50;;;;;;;16.91;67.60;101367.31;4930605;29;20439;-70
2022/10/26 10:41:46;;;;;;;7.10;5.00;;;;;;;17.16;66.93;101374.53;4859862;29;20855;-68
2022/10/26 10:44:22;;;;;;;6.47;4.20;;;;;;;17.05;66.56;101372.59;4858608;29;20522;-68
2022/10/26 10:46:59;;;;;;;6.77;4.83;;;;;;;16.97;66.85;101376.50;4857027;29;20701;-68
2022/10/26 10:49:31;;;;;;;4.67;4.17;;;;;;;17.15;66.02;101372.84;4841547;29;20462;-69
2022/10/26 10:52:03;;;;;;;6.40;4.70;;;;;;;17.28;65.65;101373.47;4842223;29;20437;-69
2022/10/26 10:54:36;;;;;;;4.17;3.40;;;;;;;17.36;65.74;101375.91;4859276;29;20468;-68
2022/10/26 10:57:18;;;;;;;7.20;4.10;;;;;;;17.69;64.91;101369.88;4840929;29;20522;-69